Terminal Aerodrome Forecast
Issued by NWS

Home | Current Version | Previous Version | Graphics & Text | Print | Product List | Glossary On
Versions: 1 2 3 4 5 6 7 8 9 10 11 12 13 14 15 16 17 18 19 20 21 22 23 24 25 26
000
FTUS43 KGRB 232300
TAFMTW
TAF
KMTW 232325Z 2400/2424 19005KT 4SM BR OVC012
      TEMPO 2400/2402 2SM -DZ BR OVC008
     FM240200 18004KT 3SM BR OVC008
      TEMPO 2402/2406 1SM -DZ BR OVC004
     FM240600 VRB03KT 1 1/2SM BR OVC004
     FM241500 01007KT 4SM BR OVC008
     FM241800 01010G15KT 6SM BR OVC012
     FM242200 36013G22KT 6SM -SN SCT012 OVC020=

USA.gov is the U.S. government's official web portal to all federal, state and local government web resources and services.